createdAt,value
2018-12-03T00:00:23.304Z,36.17
2018-12-03T00:02:57.845Z,35.63
2018-12-03T00:05:26.609Z,37.23
2018-12-03T00:07:55.032Z,37.53
2018-12-03T00:10:23.432Z,36.93
2018-12-03T00:12:51.881Z,37.60
2018-12-03T00:15:20.315Z,39.30
2018-12-03T00:17:48.736Z,33.07
2018-12-03T00:20:17.234Z,38.97
2018-12-03T00:22:45.682Z,36.60
2018-12-03T00:25:14.165Z,34.90
2018-12-03T00:27:51.566Z,38.60
2018-12-03T00:30:20.281Z,36.87
2018-12-03T00:32:48.795Z,34.13
2018-12-03T00:35:17.215Z,32.87
2018-12-03T00:37:45.633Z,34.13
2018-12-03T00:40:14.020Z,32.60
2018-12-03T00:42:48.988Z,31.27
2018-12-03T00:45:17.441Z,32.50
2018-12-03T00:47:45.847Z,32.70
2018-12-03T00:50:14.550Z,30.50
2018-12-03T00:52:42.981Z,29.10
2018-12-03T00:55:11.615Z,28.27
2018-12-03T00:57:40.074Z,26.60
2018-12-03T01:00:10.508Z,25.87
2018-12-03T01:02:38.915Z,25.80
2018-12-03T01:05:08.488Z,27.73
2018-12-03T01:07:37.286Z,26.70
2018-12-03T01:10:07.741Z,24.40
2018-12-03T01:12:36.321Z,25.53
2018-12-03T01:15:06.652Z,25.17
2018-12-03T01:17:35.063Z,23.30
2018-12-03T01:20:03.937Z,23.93
2018-12-03T01:22:32.452Z,24.23
2018-12-03T01:25:00.844Z,22.53
2018-12-03T01:27:29.282Z,24.73
2018-12-03T01:29:57.700Z,23.17
2018-12-03T01:32:26.283Z,22.47
2018-12-03T01:34:54.909Z,22.30
2018-12-03T01:37:23.380Z,22.63
2018-12-03T01:39:51.793Z,21.67
2018-12-03T01:42:20.909Z,22.30
2018-12-03T01:44:49.368Z,21.23
2018-12-03T01:47:17.756Z,19.87
2018-12-03T01:49:47.423Z,21.63
2018-12-03T01:52:15.849Z,20.10
2018-12-03T01:54:44.360Z,21.23
2018-12-03T01:57:13.141Z,19.27
2018-12-03T01:59:41.550Z,18.53
2018-12-03T02:02:10.061Z,17.57
2018-12-03T02:04:38.630Z,16.23
2018-12-03T02:07:07.067Z,17.63
2018-12-03T02:09:36.464Z,17.43
2018-12-03T02:12:04.973Z,17.00
2018-12-03T02:14:33.381Z,14.40
2018-12-03T02:17:01.756Z,14.60
2018-12-03T02:19:30.191Z,15.10
2018-12-03T02:21:58.593Z,15.40
2018-12-03T02:24:26.977Z,15.07
2018-12-03T02:26:55.404Z,15.00
2018-12-03T02:29:23.906Z,16.43
2018-12-03T02:31:52.986Z,15.77
2018-12-03T02:34:21.412Z,14.83
2018-12-03T02:36:50.273Z,16.23
2018-12-03T02:39:18.672Z,14.30
2018-12-03T02:41:47.212Z,13.97
2018-12-03T02:44:15.628Z,13.23
2018-12-03T02:46:44.145Z,12.33
2018-12-03T02:49:12.576Z,12.60
2018-12-03T02:51:40.958Z,12.90
2018-12-03T02:54:09.373Z,12.30
2018-12-03T02:56:37.878Z,11.87
2018-12-03T02:59:06.677Z,11.77
2018-12-03T03:01:35.105Z,10.83
2018-12-03T03:04:03.531Z,11.43
2018-12-03T03:06:31.926Z,11.40
2018-12-03T03:09:00.673Z,10.93
2018-12-03T03:11:29.385Z,11.23
2018-12-03T03:13:57.792Z,10.93
2018-12-03T03:16:26.285Z,10.60
2018-12-03T03:18:54.714Z,9.63
2018-12-03T03:21:23.119Z,9.00
2018-12-03T03:23:51.502Z,7.83
2018-12-03T03:26:19.935Z,6.50
2018-12-03T03:28:48.771Z,7.10
2018-12-03T03:31:17.146Z,7.17
2018-12-03T03:33:45.681Z,7.17
2018-12-03T03:36:14.113Z,7.33
2018-12-03T03:38:43.111Z,7.13
2018-12-03T03:41:11.534Z,7.20
2018-12-03T03:43:39.912Z,6.47
2018-12-03T03:46:08.311Z,6.50
2018-12-03T03:48:36.740Z,6.07
2018-12-03T03:51:05.308Z,6.10
2018-12-03T03:53:33.679Z,5.90
2018-12-03T03:56:02.136Z,7.07
2018-12-03T03:58:30.537Z,7.17
2018-12-03T04:00:59.273Z,6.57
2018-12-03T04:03:27.930Z,6.23
2018-12-03T04:05:56.322Z,5.47
2018-12-03T04:08:24.751Z,6.13
2018-12-03T04:10:53.169Z,6.63
2018-12-03T04:13:21.549Z,6.30
2018-12-03T04:15:49.956Z,6.67
2018-12-03T04:18:18.389Z,7.20
2018-12-03T04:20:46.766Z,6.63
2018-12-03T04:23:15.172Z,7.37
2018-12-03T04:25:43.608Z,7.00
2018-12-03T04:28:12.009Z,7.93
2018-12-03T04:30:40.648Z,6.60
2018-12-03T04:33:12.201Z,6.93
2018-12-03T04:35:40.641Z,6.20
2018-12-03T04:38:09.161Z,7.13
2018-12-03T04:40:38.095Z,5.97
2018-12-03T04:43:06.523Z,5.00
2018-12-03T04:45:34.994Z,6.70
2018-12-03T04:48:03.560Z,6.30
2018-12-03T04:50:31.987Z,7.10
2018-12-03T04:53:00.423Z,6.83
2018-12-03T04:55:28.833Z,6.40
2018-12-03T04:57:57.227Z,7.53
2018-12-03T05:00:25.686Z,7.80
2018-12-03T05:02:54.293Z,8.40
2018-12-03T05:05:22.781Z,7.87
2018-12-03T05:07:51.212Z,8.33
2018-12-03T05:10:21.069Z,8.23
2018-12-03T05:12:50.630Z,8.10
2018-12-03T05:15:19.086Z,7.90
2018-12-03T05:17:47.582Z,7.23
2018-12-03T05:20:18.416Z,8.37
2018-12-03T05:22:46.819Z,7.50
2018-12-03T05:25:19.218Z,8.20
2018-12-03T05:27:43.715Z,8.70
2018-12-03T05:30:13.996Z,8.30
2018-12-03T05:32:43.122Z,8.67
2018-12-03T05:35:12.893Z,9.10
2018-12-03T05:37:41.736Z,9.17
2018-12-03T05:40:13.714Z,10.13
2018-12-03T05:42:42.224Z,9.30
2018-12-03T05:45:10.972Z,10.10
2018-12-03T05:47:39.443Z,9.80
2018-12-03T05:50:13.329Z,10.73
2018-12-03T05:52:41.833Z,10.60
2018-12-03T05:55:11.565Z,10.90
2018-12-03T05:57:39.998Z,11.80
2018-12-03T06:00:13.905Z,10.97
2018-12-03T06:02:42.340Z,12.23
2018-12-03T06:05:12.085Z,11.27
2018-12-03T06:07:40.521Z,12.57
2018-12-03T06:10:11.252Z,13.23
2018-12-03T06:12:39.732Z,12.47
2018-12-03T06:15:09.937Z,12.00
2018-12-03T06:17:38.793Z,14.13
2018-12-03T06:20:09.836Z,13.10
2018-12-03T06:22:38.296Z,12.47
2018-12-03T06:25:09.416Z,12.63
2018-12-03T06:27:37.958Z,12.00
2018-12-03T06:30:13.400Z,13.00
2018-12-03T06:32:42.012Z,13.17
2018-12-03T06:35:12.205Z,12.83
2018-12-03T06:37:40.717Z,12.57
2018-12-03T06:40:13.460Z,12.87
2018-12-03T06:42:41.931Z,13.43
2018-12-03T06:45:13.013Z,12.73
2018-12-03T06:47:44.037Z,13.23
2018-12-03T06:50:12.613Z,12.97
2018-12-03T06:52:41.037Z,13.13
2018-12-03T06:55:10.731Z,13.57
2018-12-03T06:57:39.233Z,14.83
2018-12-03T07:00:14.317Z,13.50
2018-12-03T07:02:43.058Z,13.07
2018-12-03T07:05:12.843Z,14.60
2018-12-03T07:07:42.461Z,14.57
2018-12-03T07:10:12.585Z,14.70
2018-12-03T07:12:41.038Z,13.20
2018-12-03T07:15:10.901Z,15.43
2018-12-03T07:17:39.476Z,14.50
2018-12-03T07:20:11.289Z,15.70
2018-12-03T07:22:40.117Z,15.70
2018-12-03T07:25:09.964Z,15.77
2018-12-03T07:27:38.525Z,15.37
2018-12-03T07:30:24.898Z,14.13
2018-12-03T07:32:53.938Z,13.90
2018-12-03T07:35:23.297Z,13.57
2018-12-03T07:37:54.070Z,12.13
2018-12-03T07:40:22.485Z,13.00
2018-12-03T07:42:50.896Z,14.17
2018-12-03T07:45:20.409Z,13.00
2018-12-03T07:47:48.899Z,11.90
2018-12-03T07:50:18.407Z,10.23
2018-12-03T07:52:47.056Z,9.93
2018-12-03T07:55:18.536Z,11.30
2018-12-03T07:57:59.201Z,11.17
2018-12-03T08:00:31.289Z,10.53
2018-12-03T08:02:59.742Z,8.20
2018-12-03T08:05:28.476Z,9.53
2018-12-03T08:07:56.920Z,9.50
2018-12-03T08:10:25.448Z,10.37
2018-12-03T08:12:54.223Z,11.77
2018-12-03T08:15:23.089Z,10.67
2018-12-03T08:17:54.570Z,12.47
2018-12-03T08:20:29.237Z,11.97
2018-12-03T08:23:01.826Z,12.30
2018-12-03T08:25:30.506Z,11.50
2018-12-03T08:27:58.910Z,11.90
2018-12-03T08:30:27.366Z,11.63
2018-12-03T08:32:55.741Z,11.83
2018-12-03T08:35:24.192Z,11.57
2018-12-03T08:37:52.742Z,11.27
2018-12-03T08:40:21.233Z,11.20
2018-12-03T08:42:52.056Z,10.30
2018-12-03T08:45:22.011Z,11.23
2018-12-03T08:47:51.037Z,11.73
2018-12-03T08:50:21.531Z,11.00
2018-12-03T08:52:50.053Z,11.03
2018-12-03T08:55:18.467Z,10.60
2018-12-03T08:57:46.920Z,10.50
2018-12-03T09:00:20.838Z,10.13
2018-12-03T09:03:26.923Z,10.70
2018-12-03T09:05:56.307Z,10.27
2018-12-03T09:08:27.027Z,10.93
2018-12-03T09:10:55.509Z,12.23
2018-12-03T09:13:24.601Z,10.37
2018-12-03T09:15:58.536Z,9.90
2018-12-03T09:18:36.869Z,11.10
2018-12-03T09:21:13.740Z,11.07
2018-12-03T09:23:44.238Z,10.70
2018-12-03T09:26:13.199Z,11.13
2018-12-03T09:28:41.727Z,10.47
2018-12-03T09:31:10.765Z,9.57
2018-12-03T09:33:39.178Z,9.63
2018-12-03T09:36:07.616Z,10.30
2018-12-03T09:38:47.449Z,9.17
2018-12-03T09:41:15.883Z,8.87
2018-12-03T09:43:44.334Z,9.27
2018-12-03T09:46:13.033Z,9.47
2018-12-03T09:48:41.494Z,9.37
2018-12-03T09:51:09.905Z,9.67
2018-12-03T09:53:38.336Z,10.10
2018-12-03T09:56:07.625Z,10.03
2018-12-03T09:58:36.024Z,13.20
2018-12-03T10:01:04.555Z,10.17
2018-12-03T10:03:38.864Z,10.63
2018-12-03T10:06:10.728Z,10.63
2018-12-03T10:08:39.146Z,9.23
2018-12-03T10:11:08.064Z,10.60
2018-12-03T10:13:36.468Z,10.90
2018-12-03T10:16:05.040Z,11.57
2018-12-03T10:18:33.448Z,17.87
2018-12-03T10:21:02.400Z,10.63
2018-12-03T10:23:30.901Z,10.17
2018-12-03T10:26:00.649Z,11.13
2018-12-03T10:28:29.476Z,11.60
2018-12-03T10:30:58.771Z,13.10
2018-12-03T10:33:31.772Z,11.40
2018-12-03T10:36:01.966Z,13.37
2018-12-03T10:38:33.043Z,11.57
2018-12-03T10:41:11.121Z,12.03
2018-12-03T10:43:40.221Z,11.60
2018-12-03T10:46:09.975Z,12.63
2018-12-03T10:48:38.787Z,11.93
2018-12-03T10:51:13.736Z,11.80
2018-12-03T10:53:42.262Z,13.43
2018-12-03T10:56:10.725Z,12.47
2018-12-03T10:58:42.323Z,14.43
2018-12-03T11:01:16.077Z,15.33
2018-12-03T11:03:49.909Z,17.20
2018-12-03T11:06:20.618Z,15.57
2018-12-03T11:08:49.075Z,14.23
2018-12-03T11:11:17.588Z,15.47
2018-12-03T11:13:46.114Z,15.67
2018-12-03T11:16:37.041Z,13.63
2018-12-03T11:19:06.845Z,23.23
2018-12-03T11:21:35.397Z,13.57
2018-12-03T11:24:04.200Z,13.60
2018-12-03T11:26:35.942Z,21.17
2018-12-03T11:29:05.270Z,13.13
2018-12-03T11:31:34.625Z,14.83
2018-12-03T11:34:36.863Z,13.67
2018-12-03T11:37:08.520Z,13.97
2018-12-03T11:39:57.713Z,15.87
2018-12-03T11:42:30.007Z,15.30
2018-12-03T11:44:58.517Z,13.10
2018-12-03T11:47:26.910Z,13.63
2018-12-03T11:49:55.633Z,14.73
2018-12-03T11:52:24.541Z,13.90
2018-12-03T11:54:52.910Z,14.57
2018-12-03T11:57:21.423Z,14.73
2018-12-03T11:59:49.996Z,13.90
2018-12-03T12:02:18.481Z,13.57
2018-12-03T12:04:46.860Z,14.33
2018-12-03T12:07:15.473Z,14.37
2018-12-03T12:09:43.870Z,14.87
2018-12-03T12:12:12.384Z,15.50
2018-12-03T12:14:40.805Z,13.20
2018-12-03T12:17:09.185Z,13.53
2018-12-03T12:19:37.771Z,15.00
2018-12-03T12:22:06.814Z,15.00
2018-12-03T12:24:36.415Z,14.73
2018-12-03T12:27:05.680Z,14.67
2018-12-03T12:29:34.095Z,14.23
2018-12-03T12:32:02.508Z,14.53
2018-12-03T12:34:30.921Z,13.70
2018-12-03T12:36:59.347Z,13.50
2018-12-03T12:39:28.025Z,12.63
2018-12-03T12:41:56.414Z,12.07
2018-12-03T12:44:24.830Z,11.63
2018-12-03T12:46:53.618Z,10.73
2018-12-03T12:49:21.991Z,10.80
2018-12-03T12:51:51.667Z,11.40
2018-12-03T12:54:20.396Z,10.17
2018-12-03T12:56:48.776Z,11.03
2018-12-03T12:59:17.557Z,11.13
2018-12-03T13:01:46.012Z,10.63
2018-12-03T13:04:14.453Z,10.57
2018-12-03T13:06:42.874Z,11.00
2018-12-03T13:09:11.631Z,13.03
2018-12-03T13:11:40.984Z,16.40
2018-12-03T13:14:11.572Z,11.40
2018-12-03T13:16:40.182Z,10.33
2018-12-03T13:19:09.425Z,11.17
2018-12-03T13:21:38.814Z,11.23
2018-12-03T13:24:07.641Z,11.50
2018-12-03T13:26:38.693Z,12.27
2018-12-03T13:29:07.616Z,11.87
2018-12-03T13:31:36.715Z,11.87
2018-12-03T13:34:06.344Z,11.57
2018-12-03T13:36:34.881Z,11.17
2018-12-03T13:39:05.661Z,11.50
2018-12-03T13:41:34.144Z,10.37
2018-12-03T13:44:02.857Z,9.70
2018-12-03T13:46:31.249Z,10.73
2018-12-03T13:48:59.814Z,10.40
2018-12-03T13:51:28.235Z,10.00
2018-12-03T13:53:56.753Z,9.50
2018-12-03T13:56:25.180Z,10.50
2018-12-03T13:58:53.654Z,9.83
2018-12-03T14:01:24.742Z,10.27
2018-12-03T14:03:57.283Z,10.80
2018-12-03T14:06:38.679Z,11.93
2018-12-03T14:09:19.759Z,9.47
2018-12-03T14:11:57.553Z,11.20
2018-12-03T14:14:45.575Z,11.13
2018-12-03T14:17:21.810Z,11.57
2018-12-03T14:19:54.145Z,11.27
2018-12-03T14:22:26.774Z,11.50
2018-12-03T14:24:55.188Z,13.03
2018-12-03T14:27:23.562Z,12.93
2018-12-03T14:29:52.154Z,13.27
2018-12-03T14:32:20.598Z,13.40
2018-12-03T14:34:49.108Z,13.33
2018-12-03T14:37:17.560Z,12.97
2018-12-03T14:39:46.055Z,14.47
2018-12-03T14:42:14.453Z,13.27
2018-12-03T14:44:42.932Z,12.87
2018-12-03T14:47:11.310Z,13.23
2018-12-03T14:49:39.697Z,14.70
2018-12-03T14:52:08.246Z,13.03
2018-12-03T14:54:36.993Z,13.43
2018-12-03T14:57:05.404Z,13.33
2018-12-03T14:59:33.849Z,13.73
2018-12-03T15:02:02.352Z,13.90
2018-12-03T15:04:30.744Z,13.03
2018-12-03T15:06:59.176Z,11.67
2018-12-03T15:09:27.881Z,12.00
2018-12-03T15:11:56.265Z,11.60
2018-12-03T15:14:24.668Z,13.03
2018-12-03T15:16:53.117Z,11.87
2018-12-03T15:19:21.513Z,12.60
2018-12-03T15:21:49.973Z,10.27
2018-12-03T15:24:18.424Z,10.87
2018-12-03T15:26:46.853Z,10.37
2018-12-03T15:29:15.379Z,10.07
2018-12-03T15:31:43.818Z,11.10
2018-12-03T15:34:12.264Z,11.03
2018-12-03T15:36:40.779Z,10.57
2018-12-03T15:39:10.161Z,9.97
2018-12-03T15:41:38.959Z,13.07
2018-12-03T15:44:07.417Z,10.27
2018-12-03T15:46:35.812Z,10.90
2018-12-03T15:49:04.349Z,9.83
2018-12-03T15:51:32.769Z,10.60
2018-12-03T15:54:01.265Z,11.70
2018-12-03T15:56:30.200Z,10.33
2018-12-03T15:58:58.617Z,9.90
2018-12-03T16:01:27.001Z,10.17
2018-12-03T16:03:55.422Z,10.80
2018-12-03T16:06:24.006Z,9.27
2018-12-03T16:08:52.399Z,9.60
2018-12-03T16:11:20.901Z,10.67
2018-12-03T16:13:49.347Z,10.90
2018-12-03T16:16:17.726Z,10.70
2018-12-03T16:18:46.102Z,9.67
2018-12-03T16:21:14.652Z,10.50
2018-12-03T16:23:43.896Z,10.40
2018-12-03T16:26:12.279Z,10.60
2018-12-03T16:28:40.813Z,10.27
2018-12-03T16:31:09.397Z,10.07
2018-12-03T16:33:37.792Z,9.43
2018-12-03T16:36:06.223Z,10.37
2018-12-03T16:38:34.645Z,9.67
2018-12-03T16:41:03.134Z,9.30
2018-12-03T16:43:31.699Z,9.60
2018-12-03T16:46:00.360Z,10.10
2018-12-03T16:48:28.789Z,9.27
2018-12-03T16:50:57.307Z,9.13
2018-12-03T16:53:25.758Z,8.90
2018-12-03T16:55:54.267Z,8.67
2018-12-03T16:58:22.802Z,8.73
2018-12-03T17:00:51.203Z,9.67
2018-12-03T17:03:19.613Z,10.83
2018-12-03T17:05:48.032Z,8.73
2018-12-03T17:08:16.409Z,8.87
2018-12-03T17:10:44.908Z,9.27
2018-12-03T17:13:13.790Z,9.00
2018-12-03T17:15:42.160Z,9.20
2018-12-03T17:18:10.559Z,9.23
2018-12-03T17:20:44.519Z,8.93
2018-12-03T17:24:20.204Z,14.63
2018-12-03T17:26:55.298Z,8.53
2018-12-03T17:29:23.701Z,10.07
2018-12-03T17:31:52.176Z,9.40
2018-12-03T17:34:20.605Z,9.90
2018-12-03T17:36:48.991Z,10.10
2018-12-03T17:39:17.431Z,10.73
2018-12-03T17:41:45.953Z,10.50
2018-12-03T17:44:14.356Z,10.17
2018-12-03T17:46:42.761Z,9.43
2018-12-03T17:49:11.714Z,9.57
2018-12-03T17:51:40.132Z,9.30
2018-12-03T17:54:08.539Z,8.20
2018-12-03T17:56:37.061Z,8.53
2018-12-03T17:59:05.545Z,8.37
2018-12-03T18:01:33.956Z,8.67
2018-12-03T18:04:02.492Z,7.20
2018-12-03T18:06:30.897Z,7.30
2018-12-03T18:08:59.421Z,7.23
2018-12-03T18:11:27.837Z,6.63
2018-12-03T18:13:56.811Z,6.57
2018-12-03T18:16:25.195Z,5.63
2018-12-03T18:18:53.597Z,5.53
2018-12-03T18:21:21.968Z,6.00
2018-12-03T18:23:50.354Z,4.97
2018-12-03T18:26:18.906Z,4.07
2018-12-03T18:28:47.328Z,4.47
2018-12-03T18:31:15.793Z,4.10
2018-12-03T18:33:44.249Z,4.10
2018-12-03T18:36:12.657Z,3.70
2018-12-03T18:38:41.033Z,3.87
2018-12-03T18:41:09.453Z,3.80
2018-12-03T18:43:37.855Z,3.97
2018-12-03T18:46:06.224Z,3.83
2018-12-03T18:48:34.965Z,6.30
2018-12-03T18:51:03.461Z,6.00
2018-12-03T18:53:32.167Z,5.30
2018-12-03T18:56:00.740Z,4.27
2018-12-03T18:58:54.717Z,4.20
2018-12-03T19:01:24.214Z,4.33
2018-12-03T19:03:52.701Z,4.67
2018-12-03T19:06:21.377Z,4.50
2018-12-03T19:08:49.805Z,4.27
2018-12-03T19:11:18.248Z,5.20
2018-12-03T19:13:46.650Z,5.10
2018-12-03T19:16:15.198Z,4.77
2018-12-03T19:18:43.652Z,5.10
2018-12-03T19:21:12.123Z,4.90
2018-12-03T19:23:40.557Z,5.47
2018-12-03T19:26:09.193Z,4.97
2018-12-03T19:28:37.599Z,5.33
2018-12-03T19:31:06.356Z,5.20
2018-12-03T19:33:34.925Z,6.00
2018-12-03T19:36:03.402Z,5.67
2018-12-03T19:38:31.870Z,6.73
2018-12-03T19:41:00.345Z,6.80
2018-12-03T19:43:28.756Z,7.53
2018-12-03T19:45:57.329Z,7.83
2018-12-03T19:48:25.796Z,8.40
2018-12-03T19:50:54.246Z,9.47
2018-12-03T19:53:22.835Z,9.37
2018-12-03T19:55:51.978Z,9.77
2018-12-03T19:58:24.798Z,10.43
2018-12-03T20:00:53.223Z,10.37
2018-12-03T20:03:21.777Z,11.17
2018-12-03T20:05:50.239Z,11.10
2018-12-03T20:08:18.664Z,12.03
2018-12-03T20:10:47.177Z,11.97
2018-12-03T20:13:15.635Z,12.20
2018-12-03T20:15:44.069Z,12.43
2018-12-03T20:18:12.651Z,13.50
2018-12-03T20:20:46.446Z,12.20
2018-12-03T20:23:25.842Z,13.00
2018-12-03T20:26:28.681Z,11.13
2018-12-03T20:29:33.376Z,12.33
2018-12-03T20:33:10.239Z,12.17
2018-12-03T20:36:06.908Z,9.87
2018-12-03T20:38:43.593Z,10.30
2018-12-03T20:41:31.367Z,9.63
2018-12-03T20:44:06.790Z,9.80
2018-12-03T20:47:11.074Z,8.80
2018-12-03T20:49:59.761Z,8.00
2018-12-03T20:52:30.017Z,8.07
2018-12-03T20:55:03.185Z,7.93
2018-12-03T20:57:37.801Z,7.90
2018-12-03T21:00:06.897Z,7.50
2018-12-03T21:02:35.445Z,7.20
2018-12-03T21:05:04.613Z,6.57
2018-12-03T21:07:33.101Z,6.57
2018-12-03T21:10:01.911Z,6.60
2018-12-03T21:12:30.315Z,5.97
2018-12-03T21:14:58.764Z,6.70
2018-12-03T21:17:27.430Z,6.40
2018-12-03T21:20:01.145Z,7.27
2018-12-03T21:22:29.612Z,6.43
2018-12-03T21:24:58.057Z,7.00
2018-12-03T21:27:26.461Z,7.27
2018-12-03T21:29:54.883Z,6.93
2018-12-03T21:32:23.492Z,7.50
2018-12-03T21:34:51.929Z,7.90
2018-12-03T21:37:20.352Z,7.57
2018-12-03T21:39:48.749Z,7.53
2018-12-03T21:42:17.180Z,7.80
2018-12-03T21:44:45.575Z,7.07
2018-12-03T21:47:13.996Z,8.03
2018-12-03T21:49:42.437Z,7.33
2018-12-03T21:52:10.822Z,7.77
2018-12-03T21:54:39.192Z,8.33
2018-12-03T21:57:10.782Z,7.83
2018-12-03T21:59:38.543Z,7.70
2018-12-03T22:02:07.031Z,7.53
2018-12-03T22:04:35.504Z,7.97
2018-12-03T22:07:04.145Z,7.97
2018-12-03T22:09:32.539Z,7.90
2018-12-03T22:12:00.968Z,8.23
2018-12-03T22:14:29.349Z,7.23
2018-12-03T22:16:57.729Z,7.40
2018-12-03T22:19:26.121Z,7.37
2018-12-03T22:21:54.941Z,7.83
2018-12-03T22:24:23.362Z,6.80
2018-12-03T22:26:51.948Z,6.80
2018-12-03T22:29:20.612Z,6.77
2018-12-03T22:31:49.001Z,7.10
2018-12-03T22:34:22.884Z,5.83
2018-12-03T22:36:47.973Z,6.00
2018-12-03T22:39:16.365Z,6.33
2018-12-03T22:41:44.873Z,5.97
2018-12-03T22:44:13.272Z,5.67
2018-12-03T22:46:41.681Z,5.43
2018-12-03T22:49:10.119Z,5.10
2018-12-03T22:51:38.555Z,5.17
2018-12-03T22:54:06.951Z,5.87
2018-12-03T22:56:35.376Z,5.40
2018-12-03T22:59:03.869Z,5.63
2018-12-03T23:01:32.524Z,5.30
2018-12-03T23:04:01.036Z,5.37
2018-12-03T23:06:29.412Z,5.53
2018-12-03T23:08:58.224Z,6.33
2018-12-03T23:11:26.640Z,6.87
2018-12-03T23:13:55.168Z,6.13
2018-12-03T23:16:23.539Z,6.40
2018-12-03T23:18:51.941Z,6.50
2018-12-03T23:21:20.385Z,6.93
2018-12-03T23:23:49.011Z,6.77
2018-12-03T23:26:17.467Z,7.23
2018-12-03T23:28:45.839Z,6.07
2018-12-03T23:31:14.646Z,7.03
2018-12-03T23:33:43.082Z,7.00
2018-12-03T23:36:11.465Z,6.37
2018-12-03T23:38:39.913Z,7.37
2018-12-03T23:41:08.325Z,6.60
2018-12-03T23:43:36.713Z,6.50
2018-12-03T23:46:05.217Z,6.93
2018-12-03T23:48:33.779Z,6.63
2018-12-03T23:51:02.597Z,6.40
2018-12-03T23:53:30.998Z,6.90
2018-12-03T23:55:59.473Z,7.17
2018-12-03T23:58:27.845Z,6.50
